Heroic Ace — HPFM — position and weather

sailwx.info

Track history (hours):
 
Tides and Currents Weather Stations Pressure Air Temp Water Temp Dewpoint Dewpoint Depression Visibility Wind Speed Wind Dir Waves Ship Positions

Heroic Ace

Last reported at 2017-Dec-10 12:42 UTC. Time now 2017-Dec-14 02:39 UTC.
Position S 37°29' E 150°08'.

Length 198 m; draft 7.7 m.

Type: Cargo ship. MMSI: 352915000.

Date/timePositionNaut miles runAvg speedWind from/ knotsBaromVisibWave heightAir tempDewpointWater temp
2017-Dec-10 12:42S 37°29' E 150°08'713.4
2017-Dec-10 12:12S 37°35' E 150°06'4212.8
2017-Dec-10 08:57S 38°02' E 149°25'812.8
2017-Dec-10 08:21S 38°07' E 149°18'513.1
2017-Dec-10 08:00S 38°10' E 149°13'613.0
2017-Dec-10 07:30S 38°14' E 149°07'713.3
2017-Dec-10 07:00S 38°18' E 149°00'713.7
2017-Dec-10 06:29S 38°23' E 148°54'714.3
2017-Dec-10 06:00S 38°28' E 148°47'3813.8
2017-Dec-10 03:15S 38°49' E 148°07'15510.7
2017-Dec-09 12:48S 38°12' E 144°55'518.2
2017-Dec-09 12:30S 38°06' E 144°55'917.2
2017-Dec-09 12:00S 37°58' E 144°55'611.7
2017-Dec-09 11:30S 37°52' E 144°55'1 0.1
2017-Dec-08 23:23S 37°51' E 144°54'0 0.0
2017-Dec-08 22:55S 37°51' E 144°54'2 3.1
2017-Dec-08 22:23S 37°52' E 144°55'512.9
2017-Dec-08 22:00S 37°57' E 144°56'815.4
2017-Dec-08 21:30S 38°05' E 144°55'  
Track history (hours):
 
Tides and Currents Weather Stations Pressure Air Temp Water Temp Dewpoint Dewpoint Depression Visibility Wind Speed Wind Dir Waves Ship Positions

Heroic Ace

Last reported at 2017-Dec-10 12:42 UTC. Time now 2017-Dec-14 02:39 UTC.
Position S 37°29' E 150°08'.

Length 198 m; draft 7.7 m.

Type: Cargo ship. MMSI: 352915000.

Date/timePositionNaut miles runAvg speedWind from/ knotsBaromVisibWave heightAir tempDewpointWater temp
2017-Dec-10 12:42S 37°29' E 150°08'713.4
2017-Dec-10 12:12S 37°35' E 150°06'4212.8
2017-Dec-10 08:57S 38°02' E 149°25'812.8
2017-Dec-10 08:21S 38°07' E 149°18'513.1
2017-Dec-10 08:00S 38°10' E 149°13'613.0
2017-Dec-10 07:30S 38°14' E 149°07'713.3
2017-Dec-10 07:00S 38°18' E 149°00'713.7
2017-Dec-10 06:29S 38°23' E 148°54'714.3
2017-Dec-10 06:00S 38°28' E 148°47'3813.8
2017-Dec-10 03:15S 38°49' E 148°07'15510.7
2017-Dec-09 12:48S 38°12' E 144°55'518.2
2017-Dec-09 12:30S 38°06' E 144°55'917.2
2017-Dec-09 12:00S 37°58' E 144°55'611.7
2017-Dec-09 11:30S 37°52' E 144°55'1 0.1
2017-Dec-08 23:23S 37°51' E 144°54'0 0.0
2017-Dec-08 22:55S 37°51' E 144°54'2 3.1
2017-Dec-08 22:23S 37°52' E 144°55'512.9
2017-Dec-08 22:00S 37°57' E 144°56'815.4
2017-Dec-08 21:30S 38°05' E 144°55'  

Dump ship's entire track history